sensor_id;sensor_type;location;lat;lon;timestamp;temperature;humidity
2543;DHT22;1116;51.502;7.414;2023-07-09T00:02:25;23.10;1.00
2543;DHT22;1116;51.502;7.414;2023-07-09T00:04:57;23.00;1.00
2543;DHT22;1116;51.502;7.414;2023-07-09T00:07:30;23.00;1.00
2543;DHT22;1116;51.502;7.414;2023-07-09T00:10:12;22.90;1.00
2543;DHT22;1116;51.502;7.414;2023-07-09T00:12:44;22.90;1.00
2543;DHT22;1116;51.502;7.414;2023-07-09T00:15:16;22.80;1.00
2543;DHT22;1116;51.502;7.414;2023-07-09T00:17:49;22.90;1.00
2543;DHT22;1116;51.502;7.414;2023-07-09T00:20:21;22.80;1.00
2543;DHT22;1116;51.502;7.414;2023-07-09T00:22:51;22.90;1.00
2543;DHT22;1116;51.502;7.414;2023-07-09T00:25:25;22.70;1.00
2543;DHT22;1116;51.502;7.414;2023-07-09T00:27:57;22.70;1.00
2543;DHT22;1116;51.502;7.414;2023-07-09T00:30:28;22.70;1.00
2543;DHT22;1116;51.502;7.414;2023-07-09T00:32:59;22.60;1.00
2543;DHT22;1116;51.502;7.414;2023-07-09T00:35:31;22.50;1.00
2543;DHT22;1116;51.502;7.414;2023-07-09T00:38:02;22.40;1.00
2543;DHT22;1116;51.502;7.414;2023-07-09T00:40:36;22.40;1.10
2543;DHT22;1116;51.502;7.414;2023-07-09T00:43:12;22.40;1.40
2543;DHT22;1116;51.502;7.414;2023-07-09T00:45:44;22.40;2.40
2543;DHT22;1116;51.502;7.414;2023-07-09T00:48:16;22.40;2.00
2543;DHT22;1116;51.502;7.414;2023-07-09T00:50:49;22.30;2.60
2543;DHT22;1116;51.502;7.414;2023-07-09T00:53:28;22.30;2.20
2543;DHT22;1116;51.502;7.414;2023-07-09T00:56:12;22.20;2.70
2543;DHT22;1116;51.502;7.414;2023-07-09T00:58:44;22.20;2.70
2543;DHT22;1116;51.502;7.414;2023-07-09T01:01:19;22.20;3.40
2543;DHT22;1116;51.502;7.414;2023-07-09T01:03:54;22.10;3.20
2543;DHT22;1116;51.502;7.414;2023-07-09T01:06:30;22.00;3.60
2543;DHT22;1116;51.502;7.414;2023-07-09T01:09:04;22.00;3.80
2543;DHT22;1116;51.502;7.414;2023-07-09T01:11:37;22.00;4.00
2543;DHT22;1116;51.502;7.414;2023-07-09T01:14:11;22.00;3.90
2543;DHT22;1116;51.502;7.414;2023-07-09T01:16:49;22.00;3.80
2543;DHT22;1116;51.502;7.414;2023-07-09T01:19:26;22.00;4.40
2543;DHT22;1116;51.502;7.414;2023-07-09T01:22:01;21.90;4.10
2543;DHT22;1116;51.502;7.414;2023-07-09T01:24:48;21.90;4.40
2543;DHT22;1116;51.502;7.414;2023-07-09T01:27:22;21.80;5.70
2543;DHT22;1116;51.502;7.414;2023-07-09T01:29:55;21.80;4.80
2543;DHT22;1116;51.502;7.414;2023-07-09T01:32:27;21.80;4.30
2543;DHT22;1116;51.502;7.414;2023-07-09T01:35:00;21.90;4.90
2543;DHT22;1116;51.502;7.414;2023-07-09T01:37:39;21.90;5.00
2543;DHT22;1116;51.502;7.414;2023-07-09T01:40:12;21.80;5.00
2543;DHT22;1116;51.502;7.414;2023-07-09T01:42:58;21.80;5.30
2543;DHT22;1116;51.502;7.414;2023-07-09T01:45:30;22.10;5.90
2543;DHT22;1116;51.502;7.414;2023-07-09T01:48:02;21.80;5.50
2543;DHT22;1116;51.502;7.414;2023-07-09T01:51:12;21.70;5.60
2543;DHT22;1116;51.502;7.414;2023-07-09T01:53:53;21.70;6.30
2543;DHT22;1116;51.502;7.414;2023-07-09T01:56:24;21.60;6.70
2543;DHT22;1116;51.502;7.414;2023-07-09T01:58:55;21.60;6.40
2543;DHT22;1116;51.502;7.414;2023-07-09T02:01:29;21.50;5.90
2543;DHT22;1116;51.502;7.414;2023-07-09T02:04:02;21.50;6.80
2543;DHT22;1116;51.502;7.414;2023-07-09T02:06:33;21.50;6.70
2543;DHT22;1116;51.502;7.414;2023-07-09T02:09:06;21.50;6.80
2543;DHT22;1116;51.502;7.414;2023-07-09T02:11:37;21.50;7.30
2543;DHT22;1116;51.502;7.414;2023-07-09T02:14:08;21.40;7.60
2543;DHT22;1116;51.502;7.414;2023-07-09T02:16:39;21.40;7.10
2543;DHT22;1116;51.502;7.414;2023-07-09T02:19:11;21.40;7.20
2543;DHT22;1116;51.502;7.414;2023-07-09T02:21:43;21.40;7.60
2543;DHT22;1116;51.502;7.414;2023-07-09T02:24:16;21.60;8.00
2543;DHT22;1116;51.502;7.414;2023-07-09T02:26:47;21.30;7.80
2543;DHT22;1116;51.502;7.414;2023-07-09T02:29:18;21.30;8.10
2543;DHT22;1116;51.502;7.414;2023-07-09T02:31:51;21.30;8.40
2543;DHT22;1116;51.502;7.414;2023-07-09T02:34:22;21.30;8.40
2543;DHT22;1116;51.502;7.414;2023-07-09T02:36:54;21.30;8.60
2543;DHT22;1116;51.502;7.414;2023-07-09T02:39:28;21.20;8.60
2543;DHT22;1116;51.502;7.414;2023-07-09T02:41:59;21.20;8.90
2543;DHT22;1116;51.502;7.414;2023-07-09T02:44:30;21.20;9.10
2543;DHT22;1116;51.502;7.414;2023-07-09T02:47:01;21.10;9.30
2543;DHT22;1116;51.502;7.414;2023-07-09T02:49:32;21.10;9.40
2543;DHT22;1116;51.502;7.414;2023-07-09T02:52:04;21.10;9.50
2543;DHT22;1116;51.502;7.414;2023-07-09T02:54:37;21.10;9.50
2543;DHT22;1116;51.502;7.414;2023-07-09T02:57:08;21.10;10.00
2543;DHT22;1116;51.502;7.414;2023-07-09T02:59:39;21.10;10.00
2543;DHT22;1116;51.502;7.414;2023-07-09T03:02:10;21.00;9.50
2543;DHT22;1116;51.502;7.414;2023-07-09T03:04:41;21.00;10.10
2543;DHT22;1116;51.502;7.414;2023-07-09T03:07:12;21.00;10.40
2543;DHT22;1116;51.502;7.414;2023-07-09T03:09:46;21.00;10.10
2543;DHT22;1116;51.502;7.414;2023-07-09T03:12:17;20.90;10.60
2543;DHT22;1116;51.502;7.414;2023-07-09T03:14:48;20.90;11.30
2543;DHT22;1116;51.502;7.414;2023-07-09T03:17:19;20.90;10.60
2543;DHT22;1116;51.502;7.414;2023-07-09T03:19:54;20.90;11.10
2543;DHT22;1116;51.502;7.414;2023-07-09T03:22:25;20.80;10.70
2543;DHT22;1116;51.502;7.414;2023-07-09T03:24:58;20.80;11.30
2543;DHT22;1116;51.502;7.414;2023-07-09T03:27:29;20.80;11.20
2543;DHT22;1116;51.502;7.414;2023-07-09T03:30:00;20.70;11.10
2543;DHT22;1116;51.502;7.414;2023-07-09T03:32:31;20.70;11.50
2543;DHT22;1116;51.502;7.414;2023-07-09T03:35:02;20.80;11.80
2543;DHT22;1116;51.502;7.414;2023-07-09T03:37:33;20.80;11.80
2543;DHT22;1116;51.502;7.414;2023-07-09T03:40:10;21.00;12.20
2543;DHT22;1116;51.502;7.414;2023-07-09T03:42:41;20.80;13.30
2543;DHT22;1116;51.502;7.414;2023-07-09T03:45:12;20.80;12.00
2543;DHT22;1116;51.502;7.414;2023-07-09T03:47:43;20.80;12.80
2543;DHT22;1116;51.502;7.414;2023-07-09T03:50:15;20.80;12.30
2543;DHT22;1116;51.502;7.414;2023-07-09T03:52:45;20.80;12.90
2543;DHT22;1116;51.502;7.414;2023-07-09T03:55:19;20.80;12.90
2543;DHT22;1116;51.502;7.414;2023-07-09T03:57:52;20.90;12.60
2543;DHT22;1116;51.502;7.414;2023-07-09T04:00:23;20.90;13.00
2543;DHT22;1116;51.502;7.414;2023-07-09T04:02:55;20.90;13.00
2543;DHT22;1116;51.502;7.414;2023-07-09T04:05:27;20.80;12.30
2543;DHT22;1116;51.502;7.414;2023-07-09T04:07:58;20.90;12.50
2543;DHT22;1116;51.502;7.414;2023-07-09T04:10:32;20.90;12.00
2543;DHT22;1116;51.502;7.414;2023-07-09T04:13:03;21.00;13.10
2543;DHT22;1116;51.502;7.414;2023-07-09T04:15:34;21.00;13.00
2543;DHT22;1116;51.502;7.414;2023-07-09T04:18:05;21.10;12.40
2543;DHT22;1116;51.502;7.414;2023-07-09T04:20:36;21.10;12.70
2543;DHT22;1116;51.502;7.414;2023-07-09T04:23:15;21.10;13.10
2543;DHT22;1116;51.502;7.414;2023-07-09T04:25:48;21.20;12.80
2543;DHT22;1116;51.502;7.414;2023-07-09T04:28:19;21.30;12.00
2543;DHT22;1116;51.502;7.414;2023-07-09T04:30:51;21.30;12.00
2543;DHT22;1116;51.502;7.414;2023-07-09T04:33:22;21.40;12.50
2543;DHT22;1116;51.502;7.414;2023-07-09T04:35:53;21.60;12.20
2543;DHT22;1116;51.502;7.414;2023-07-09T04:38:24;21.70;11.70
2543;DHT22;1116;51.502;7.414;2023-07-09T04:40:57;21.90;11.10
2543;DHT22;1116;51.502;7.414;2023-07-09T04:43:28;22.20;11.00
2543;DHT22;1116;51.502;7.414;2023-07-09T04:45:59;22.60;9.60
2543;DHT22;1116;51.502;7.414;2023-07-09T04:48:30;23.00;7.90
2543;DHT22;1116;51.502;7.414;2023-07-09T04:51:01;23.30;6.50
2543;DHT22;1116;51.502;7.414;2023-07-09T04:53:32;23.70;5.60
2543;DHT22;1116;51.502;7.414;2023-07-09T04:56:06;24.00;5.30
2543;DHT22;1116;51.502;7.414;2023-07-09T04:58:37;24.40;3.40
2543;DHT22;1116;51.502;7.414;2023-07-09T05:01:08;24.80;2.50
2543;DHT22;1116;51.502;7.414;2023-07-09T05:03:39;25.20;1.90
2543;DHT22;1116;51.502;7.414;2023-07-09T05:06:10;25.50;1.00
2543;DHT22;1116;51.502;7.414;2023-07-09T05:08:41;25.80;1.00
2543;DHT22;1116;51.502;7.414;2023-07-09T05:11:15;26.10;1.00
2543;DHT22;1116;51.502;7.414;2023-07-09T05:13:46;26.50;1.00
2543;DHT22;1116;51.502;7.414;2023-07-09T05:16:20;26.90;1.00
2543;DHT22;1116;51.502;7.414;2023-07-09T05:18:52;27.10;1.00
2543;DHT22;1116;51.502;7.414;2023-07-09T05:21:23;27.40;1.00
2543;DHT22;1116;51.502;7.414;2023-07-09T05:23:54;27.80;1.00
2543;DHT22;1116;51.502;7.414;2023-07-09T05:26:27;28.00;1.00
2543;DHT22;1116;51.502;7.414;2023-07-09T05:28:58;28.30;1.00
2543;DHT22;1116;51.502;7.414;2023-07-09T05:31:29;28.60;1.00
2543;DHT22;1116;51.502;7.414;2023-07-09T05:34:00;28.90;1.00
2543;DHT22;1116;51.502;7.414;2023-07-09T05:36:31;29.20;1.00
2543;DHT22;1116;51.502;7.414;2023-07-09T05:39:02;29.60;1.00
2543;DHT22;1116;51.502;7.414;2023-07-09T05:41:35;29.90;1.00
2543;DHT22;1116;51.502;7.414;2023-07-09T05:44:06;30.20;1.00
2543;DHT22;1116;51.502;7.414;2023-07-09T05:46:37;30.50;1.00
2543;DHT22;1116;51.502;7.414;2023-07-09T05:49:09;30.80;1.00
2543;DHT22;1116;51.502;7.414;2023-07-09T05:51:41;31.00;1.00
2543;DHT22;1116;51.502;7.414;2023-07-09T05:54:12;31.10;1.00
2543;DHT22;1116;51.502;7.414;2023-07-09T05:56:46;31.30;1.00
2543;DHT22;1116;51.502;7.414;2023-07-09T05:59:16;31.50;1.00
2543;DHT22;1116;51.502;7.414;2023-07-09T06:01:47;31.90;1.00
2543;DHT22;1116;51.502;7.414;2023-07-09T06:04:18;32.20;1.00
2543;DHT22;1116;51.502;7.414;2023-07-09T06:06:49;32.20;1.00
2543;DHT22;1116;51.502;7.414;2023-07-09T06:09:20;32.40;1.00
2543;DHT22;1116;51.502;7.414;2023-07-09T06:11:53;32.50;1.00
2543;DHT22;1116;51.502;7.414;2023-07-09T06:14:25;32.80;1.00
2543;DHT22;1116;51.502;7.414;2023-07-09T06:16:55;33.00;1.00
2543;DHT22;1116;51.502;7.414;2023-07-09T06:19:27;33.30;1.00
2543;DHT22;1116;51.502;7.414;2023-07-09T06:21:58;33.40;1.00
2543;DHT22;1116;51.502;7.414;2023-07-09T06:24:29;33.30;1.00
2543;DHT22;1116;51.502;7.414;2023-07-09T06:27:03;32.80;1.00
2543;DHT22;1116;51.502;7.414;2023-07-09T06:29:34;32.10;1.00
2543;DHT22;1116;51.502;7.414;2023-07-09T06:32:05;31.50;1.00
2543;DHT22;1116;51.502;7.414;2023-07-09T06:34:36;30.90;1.00
2543;DHT22;1116;51.502;7.414;2023-07-09T06:37:07;30.40;1.00
2543;DHT22;1116;51.502;7.414;2023-07-09T06:39:38;30.00;1.00
2543;DHT22;1116;51.502;7.414;2023-07-09T06:42:11;29.80;1.00
2543;DHT22;1116;51.502;7.414;2023-07-09T06:44:43;30.20;1.00
2543;DHT22;1116;51.502;7.414;2023-07-09T06:47:14;30.60;1.00
2543;DHT22;1116;51.502;7.414;2023-07-09T06:49:45;31.40;1.00
2543;DHT22;1116;51.502;7.414;2023-07-09T06:52:19;32.30;1.00
2543;DHT22;1116;51.502;7.414;2023-07-09T06:54:50;33.00;1.00
2543;DHT22;1116;51.502;7.414;2023-07-09T06:57:31;33.30;1.00
2543;DHT22;1116;51.502;7.414;2023-07-09T07:00:11;33.60;1.00
2543;DHT22;1116;51.502;7.414;2023-07-09T07:02:42;33.40;1.00
2543;DHT22;1116;51.502;7.414;2023-07-09T07:05:13;33.60;1.00
2543;DHT22;1116;51.502;7.414;2023-07-09T07:07:45;33.90;1.00
2543;DHT22;1116;51.502;7.414;2023-07-09T07:10:19;33.90;1.00
2543;DHT22;1116;51.502;7.414;2023-07-09T07:12:53;34.00;1.00
2543;DHT22;1116;51.502;7.414;2023-07-09T07:15:24;34.20;1.00
2543;DHT22;1116;51.502;7.414;2023-07-09T07:17:55;34.50;1.00
2543;DHT22;1116;51.502;7.414;2023-07-09T07:20:26;34.60;1.00
2543;DHT22;1116;51.502;7.414;2023-07-09T07:22:57;34.50;1.00
2543;DHT22;1116;51.502;7.414;2023-07-09T07:25:28;34.30;1.00
2543;DHT22;1116;51.502;7.414;2023-07-09T07:28:01;34.10;1.00
2543;DHT22;1116;51.502;7.414;2023-07-09T07:30:32;33.80;1.00
2543;DHT22;1116;51.502;7.414;2023-07-09T07:33:03;33.70;1.00
2543;DHT22;1116;51.502;7.414;2023-07-09T07:35:34;33.50;1.00
2543;DHT22;1116;51.502;7.414;2023-07-09T07:38:25;33.10;1.00
2543;DHT22;1116;51.502;7.414;2023-07-09T07:40:56;32.50;1.00
2543;DHT22;1116;51.502;7.414;2023-07-09T07:43:29;32.30;1.00
2543;DHT22;1116;51.502;7.414;2023-07-09T07:46:00;31.90;1.00
2543;DHT22;1116;51.502;7.414;2023-07-09T07:48:32;31.70;1.00
2543;DHT22;1116;51.502;7.414;2023-07-09T07:51:03;31.70;1.00
2543;DHT22;1116;51.502;7.414;2023-07-09T07:53:35;31.80;1.00
2543;DHT22;1116;51.502;7.414;2023-07-09T07:56:06;31.90;1.00
2543;DHT22;1116;51.502;7.414;2023-07-09T07:58:40;31.80;1.00
2543;DHT22;1116;51.502;7.414;2023-07-09T08:01:11;31.90;1.00
2543;DHT22;1116;51.502;7.414;2023-07-09T08:03:42;31.60;1.00
2543;DHT22;1116;51.502;7.414;2023-07-09T08:06:13;31.70;1.00
2543;DHT22;1116;51.502;7.414;2023-07-09T08:08:44;31.90;1.00
2543;DHT22;1116;51.502;7.414;2023-07-09T08:11:15;31.90;1.00
2543;DHT22;1116;51.502;7.414;2023-07-09T08:13:48;31.90;1.00
2543;DHT22;1116;51.502;7.414;2023-07-09T08:16:20;32.10;1.00
2543;DHT22;1116;51.502;7.414;2023-07-09T08:18:50;31.80;1.00
2543;DHT22;1116;51.502;7.414;2023-07-09T08:21:22;32.10;1.00
2543;DHT22;1116;51.502;7.414;2023-07-09T08:23:53;32.00;1.00
2543;DHT22;1116;51.502;7.414;2023-07-09T08:26:24;31.90;1.00
2543;DHT22;1116;51.502;7.414;2023-07-09T08:28:58;32.00;1.00
2543;DHT22;1116;51.502;7.414;2023-07-09T08:31:29;31.70;1.00
2543;DHT22;1116;51.502;7.414;2023-07-09T08:34:00;31.60;1.00
2543;DHT22;1116;51.502;7.414;2023-07-09T08:36:30;31.80;1.00
2543;DHT22;1116;51.502;7.414;2023-07-09T08:39:02;32.00;1.00
2543;DHT22;1116;51.502;7.414;2023-07-09T08:41:40;32.10;1.00
2543;DHT22;1116;51.502;7.414;2023-07-09T08:44:42;32.20;1.00
2543;DHT22;1116;51.502;7.414;2023-07-09T08:47:18;32.10;1.00
2543;DHT22;1116;51.502;7.414;2023-07-09T08:49:56;32.20;1.00
2543;DHT22;1116;51.502;7.414;2023-07-09T08:52:32;32.40;1.00
2543;DHT22;1116;51.502;7.414;2023-07-09T08:55:07;32.50;1.00
2543;DHT22;1116;51.502;7.414;2023-07-09T08:57:41;32.50;1.00
2543;DHT22;1116;51.502;7.414;2023-07-09T09:00:18;32.60;1.00
2543;DHT22;1116;51.502;7.414;2023-07-09T09:02:56;32.60;1.00
2543;DHT22;1116;51.502;7.414;2023-07-09T09:05:32;32.70;1.00
2543;DHT22;1116;51.502;7.414;2023-07-09T09:08:17;32.60;1.00
2543;DHT22;1116;51.502;7.414;2023-07-09T09:10:57;32.90;1.00
2543;DHT22;1116;51.502;7.414;2023-07-09T09:13:29;33.00;1.00
2543;DHT22;1116;51.502;7.414;2023-07-09T09:16:14;33.10;1.00
2543;DHT22;1116;51.502;7.414;2023-07-09T09:18:49;33.30;1.00
2543;DHT22;1116;51.502;7.414;2023-07-09T09:21:23;33.20;1.00
2543;DHT22;1116;51.502;7.414;2023-07-09T09:23:58;33.40;1.00
2543;DHT22;1116;51.502;7.414;2023-07-09T09:26:34;33.50;1.00
2543;DHT22;1116;51.502;7.414;2023-07-09T09:29:11;33.40;1.00
2543;DHT22;1116;51.502;7.414;2023-07-09T09:31:50;33.50;1.00
2543;DHT22;1116;51.502;7.414;2023-07-09T09:34:25;33.50;1.00
2543;DHT22;1116;51.502;7.414;2023-07-09T09:36:58;33.50;1.00
2543;DHT22;1116;51.502;7.414;2023-07-09T09:39:29;33.50;1.00
2543;DHT22;1116;51.502;7.414;2023-07-09T09:42:00;33.60;1.00
2543;DHT22;1116;51.502;7.414;2023-07-09T09:44:31;33.60;1.00
2543;DHT22;1116;51.502;7.414;2023-07-09T09:47:05;33.60;1.00
2543;DHT22;1116;51.502;7.414;2023-07-09T09:49:39;33.70;1.00
2543;DHT22;1116;51.502;7.414;2023-07-09T09:52:13;33.90;1.00
2543;DHT22;1116;51.502;7.414;2023-07-09T09:54:50;33.90;1.00
2543;DHT22;1116;51.502;7.414;2023-07-09T09:57:23;34.00;1.00
2543;DHT22;1116;51.502;7.414;2023-07-09T09:59:58;34.00;1.00
2543;DHT22;1116;51.502;7.414;2023-07-09T10:02:39;34.00;1.00
2543;DHT22;1116;51.502;7.414;2023-07-09T10:05:14;34.00;1.00
2543;DHT22;1116;51.502;7.414;2023-07-09T10:07:52;34.10;1.00
2543;DHT22;1116;51.502;7.414;2023-07-09T10:10:29;34.10;1.00
2543;DHT22;1116;51.502;7.414;2023-07-09T10:13:10;34.30;1.00
2543;DHT22;1116;51.502;7.414;2023-07-09T10:16:01;34.30;1.00
2543;DHT22;1116;51.502;7.414;2023-07-09T10:18:46;34.50;1.00
2543;DHT22;1116;51.502;7.414;2023-07-09T10:21:25;34.30;1.00
2543;DHT22;1116;51.502;7.414;2023-07-09T10:24:10;34.40;1.00
2543;DHT22;1116;51.502;7.414;2023-07-09T10:26:46;34.50;1.00
2543;DHT22;1116;51.502;7.414;2023-07-09T10:29:44;34.60;1.00
2543;DHT22;1116;51.502;7.414;2023-07-09T10:32:28;34.60;1.00
2543;DHT22;1116;51.502;7.414;2023-07-09T10:35:13;34.80;1.00
2543;DHT22;1116;51.502;7.414;2023-07-09T10:38:00;34.90;1.00
2543;DHT22;1116;51.502;7.414;2023-07-09T10:40:36;34.70;1.00
2543;DHT22;1116;51.502;7.414;2023-07-09T10:43:15;34.70;1.00
2543;DHT22;1116;51.502;7.414;2023-07-09T10:45:48;34.60;1.00
2543;DHT22;1116;51.502;7.414;2023-07-09T10:48:35;34.80;1.00
2543;DHT22;1116;51.502;7.414;2023-07-09T10:51:17;35.00;1.00
2543;DHT22;1116;51.502;7.414;2023-07-09T10:53:54;35.20;1.00
2543;DHT22;1116;51.502;7.414;2023-07-09T10:56:27;35.20;1.00
2543;DHT22;1116;51.502;7.414;2023-07-09T10:59:04;35.20;1.00
2543;DHT22;1116;51.502;7.414;2023-07-09T11:01:40;35.30;1.00
2543;DHT22;1116;51.502;7.414;2023-07-09T11:04:20;35.30;1.00
2543;DHT22;1116;51.502;7.414;2023-07-09T11:07:00;35.30;1.00
2543;DHT22;1116;51.502;7.414;2023-07-09T11:09:34;35.10;1.00
2543;DHT22;1116;51.502;7.414;2023-07-09T11:12:10;35.40;1.00
2543;DHT22;1116;51.502;7.414;2023-07-09T11:14:46;35.40;1.00
2543;DHT22;1116;51.502;7.414;2023-07-09T11:17:20;35.50;1.00
2543;DHT22;1116;51.502;7.414;2023-07-09T11:19:55;35.50;1.00
2543;DHT22;1116;51.502;7.414;2023-07-09T11:22:37;35.60;1.00
2543;DHT22;1116;51.502;7.414;2023-07-09T11:25:10;35.70;1.00
2543;DHT22;1116;51.502;7.414;2023-07-09T11:27:48;35.70;1.00
2543;DHT22;1116;51.502;7.414;2023-07-09T11:30:26;35.70;1.00
2543;DHT22;1116;51.502;7.414;2023-07-09T11:33:00;35.80;1.00
2543;DHT22;1116;51.502;7.414;2023-07-09T11:35:53;35.60;1.00
2543;DHT22;1116;51.502;7.414;2023-07-09T11:38:38;35.60;1.00
2543;DHT22;1116;51.502;7.414;2023-07-09T11:41:39;35.60;1.00
2543;DHT22;1116;51.502;7.414;2023-07-09T11:44:15;35.60;1.00
2543;DHT22;1116;51.502;7.414;2023-07-09T11:47:03;35.80;1.00
2543;DHT22;1116;51.502;7.414;2023-07-09T11:49:47;35.90;1.00
2543;DHT22;1116;51.502;7.414;2023-07-09T11:52:24;36.00;1.00
2543;DHT22;1116;51.502;7.414;2023-07-09T11:55:19;36.10;1.00
2543;DHT22;1116;51.502;7.414;2023-07-09T11:57:53;36.10;1.00
2543;DHT22;1116;51.502;7.414;2023-07-09T12:00:26;36.10;1.00
2543;DHT22;1116;51.502;7.414;2023-07-09T12:02:59;36.00;1.00
2543;DHT22;1116;51.502;7.414;2023-07-09T12:05:30;35.90;1.00
2543;DHT22;1116;51.502;7.414;2023-07-09T12:08:02;36.00;1.00
2543;DHT22;1116;51.502;7.414;2023-07-09T12:10:36;36.20;1.00
2543;DHT22;1116;51.502;7.414;2023-07-09T12:13:10;36.00;1.00
2543;DHT22;1116;51.502;7.414;2023-07-09T12:15:42;36.00;1.00
2543;DHT22;1116;51.502;7.414;2023-07-09T12:18:14;36.20;1.00
2543;DHT22;1116;51.502;7.414;2023-07-09T12:20:49;36.20;1.00
2543;DHT22;1116;51.502;7.414;2023-07-09T12:23:25;36.10;1.00
2543;DHT22;1116;51.502;7.414;2023-07-09T12:26:02;35.90;1.00
2543;DHT22;1116;51.502;7.414;2023-07-09T12:28:36;35.60;1.00
2543;DHT22;1116;51.502;7.414;2023-07-09T12:31:13;35.30;1.00
2543;DHT22;1116;51.502;7.414;2023-07-09T12:33:48;35.50;1.00
2543;DHT22;1116;51.502;7.414;2023-07-09T12:36:20;35.60;1.00
2543;DHT22;1116;51.502;7.414;2023-07-09T12:38:54;35.60;1.00
2543;DHT22;1116;51.502;7.414;2023-07-09T12:41:34;35.70;1.00
2543;DHT22;1116;51.502;7.414;2023-07-09T12:44:16;35.80;1.00
2543;DHT22;1116;51.502;7.414;2023-07-09T12:46:50;35.90;1.00
2543;DHT22;1116;51.502;7.414;2023-07-09T12:49:24;36.00;1.00
2543;DHT22;1116;51.502;7.414;2023-07-09T12:51:55;36.10;1.00
2543;DHT22;1116;51.502;7.414;2023-07-09T12:54:28;36.10;1.00
2543;DHT22;1116;51.502;7.414;2023-07-09T12:57:13;36.10;1.00
2543;DHT22;1116;51.502;7.414;2023-07-09T12:59:46;36.10;1.00
2543;DHT22;1116;51.502;7.414;2023-07-09T13:02:25;36.20;1.00
2543;DHT22;1116;51.502;7.414;2023-07-09T13:05:02;36.30;1.00
2543;DHT22;1116;51.502;7.414;2023-07-09T13:07:37;36.20;1.00
2543;DHT22;1116;51.502;7.414;2023-07-09T13:10:16;36.10;1.00
2543;DHT22;1116;51.502;7.414;2023-07-09T13:12:52;36.10;1.00
2543;DHT22;1116;51.502;7.414;2023-07-09T13:15:26;36.00;1.00
2543;DHT22;1116;51.502;7.414;2023-07-09T13:17:59;35.90;1.00
2543;DHT22;1116;51.502;7.414;2023-07-09T13:20:32;35.70;1.00
2543;DHT22;1116;51.502;7.414;2023-07-09T13:23:09;35.70;1.00
2543;DHT22;1116;51.502;7.414;2023-07-09T13:25:40;35.70;1.00
2543;DHT22;1116;51.502;7.414;2023-07-09T13:28:20;35.60;1.00
2543;DHT22;1116;51.502;7.414;2023-07-09T13:30:57;35.60;1.00
2543;DHT22;1116;51.502;7.414;2023-07-09T13:33:29;35.60;1.00
2543;DHT22;1116;51.502;7.414;2023-07-09T13:36:00;35.60;1.00
2543;DHT22;1116;51.502;7.414;2023-07-09T13:38:31;35.60;1.00
2543;DHT22;1116;51.502;7.414;2023-07-09T13:41:11;35.60;1.00
2543;DHT22;1116;51.502;7.414;2023-07-09T13:43:47;35.60;1.00
2543;DHT22;1116;51.502;7.414;2023-07-09T13:46:19;35.60;1.00
2543;DHT22;1116;51.502;7.414;2023-07-09T13:48:53;35.50;1.00
2543;DHT22;1116;51.502;7.414;2023-07-09T13:51:24;35.30;1.00
2543;DHT22;1116;51.502;7.414;2023-07-09T13:53:59;35.30;1.00
2543;DHT22;1116;51.502;7.414;2023-07-09T13:56:31;35.30;1.00
2543;DHT22;1116;51.502;7.414;2023-07-09T13:59:12;35.30;1.00
2543;DHT22;1116;51.502;7.414;2023-07-09T14:01:44;35.20;1.00
2543;DHT22;1116;51.502;7.414;2023-07-09T14:04:17;35.10;1.00
2543;DHT22;1116;51.502;7.414;2023-07-09T14:06:48;35.10;1.00
2543;DHT22;1116;51.502;7.414;2023-07-09T14:09:20;35.00;1.00
2543;DHT22;1116;51.502;7.414;2023-07-09T14:11:52;34.90;1.00
2543;DHT22;1116;51.502;7.414;2023-07-09T14:14:32;34.80;1.00
2543;DHT22;1116;51.502;7.414;2023-07-09T14:17:04;34.70;1.00
2543;DHT22;1116;51.502;7.414;2023-07-09T14:19:35;34.40;1.00
2543;DHT22;1116;51.502;7.414;2023-07-09T14:22:20;34.30;1.00
2543;DHT22;1116;51.502;7.414;2023-07-09T14:24:52;34.20;1.00
2543;DHT22;1116;51.502;7.414;2023-07-09T14:27:23;33.80;1.00
2543;DHT22;1116;51.502;7.414;2023-07-09T14:29:56;33.60;1.00
2543;DHT22;1116;51.502;7.414;2023-07-09T14:32:33;33.40;1.00
2543;DHT22;1116;51.502;7.414;2023-07-09T14:35:12;33.20;1.00
2543;DHT22;1116;51.502;7.414;2023-07-09T14:37:44;33.10;1.00
2543;DHT22;1116;51.502;7.414;2023-07-09T14:40:17;32.90;1.00
2543;DHT22;1116;51.502;7.414;2023-07-09T14:42:49;32.70;1.00
2543;DHT22;1116;51.502;7.414;2023-07-09T14:45:24;32.60;1.00
2543;DHT22;1116;51.502;7.414;2023-07-09T14:47:56;32.40;1.00
2543;DHT22;1116;51.502;7.414;2023-07-09T14:50:27;32.20;1.00
2543;DHT22;1116;51.502;7.414;2023-07-09T14:52:59;32.10;1.00
2543;DHT22;1116;51.502;7.414;2023-07-09T14:55:30;32.00;1.00
2543;DHT22;1116;51.502;7.414;2023-07-09T14:58:00;31.90;1.00
2543;DHT22;1116;51.502;7.414;2023-07-09T15:00:36;31.80;1.00
2543;DHT22;1116;51.502;7.414;2023-07-09T15:03:09;31.70;1.00
2543;DHT22;1116;51.502;7.414;2023-07-09T15:05:40;31.60;1.00
2543;DHT22;1116;51.502;7.414;2023-07-09T15:08:12;31.50;1.00
2543;DHT22;1116;51.502;7.414;2023-07-09T15:10:44;31.40;1.00
2543;DHT22;1116;51.502;7.414;2023-07-09T15:13:21;31.40;1.00
2543;DHT22;1116;51.502;7.414;2023-07-09T15:15:55;30.80;1.00
2543;DHT22;1116;51.502;7.414;2023-07-09T15:18:27;30.50;1.00
2543;DHT22;1116;51.502;7.414;2023-07-09T15:20:59;29.70;1.00
2543;DHT22;1116;51.502;7.414;2023-07-09T15:23:33;29.00;1.00
2543;DHT22;1116;51.502;7.414;2023-07-09T15:26:12;28.20;1.00
2543;DHT22;1116;51.502;7.414;2023-07-09T15:28:44;27.60;1.00
2543;DHT22;1116;51.502;7.414;2023-07-09T15:31:20;27.00;1.00
2543;DHT22;1116;51.502;7.414;2023-07-09T15:33:51;26.40;1.00
2543;DHT22;1116;51.502;7.414;2023-07-09T15:36:22;25.90;2.10
2543;DHT22;1116;51.502;7.414;2023-07-09T15:38:53;25.60;5.50
2543;DHT22;1116;51.502;7.414;2023-07-09T15:41:24;25.20;7.90
2543;DHT22;1116;51.502;7.414;2023-07-09T15:43:55;25.00;10.50
2543;DHT22;1116;51.502;7.414;2023-07-09T15:46:29;24.80;12.10
2543;DHT22;1116;51.502;7.414;2023-07-09T15:49:00;24.70;14.00
2543;DHT22;1116;51.502;7.414;2023-07-09T15:51:31;24.50;15.40
2543;DHT22;1116;51.502;7.414;2023-07-09T15:54:07;24.40;17.10
2543;DHT22;1116;51.502;7.414;2023-07-09T15:56:39;24.30;19.30
2543;DHT22;1116;51.502;7.414;2023-07-09T15:59:25;24.30;19.90
2543;DHT22;1116;51.502;7.414;2023-07-09T16:02:01;24.30;19.70
2543;DHT22;1116;51.502;7.414;2023-07-09T16:04:33;24.30;20.30
2543;DHT22;1116;51.502;7.414;2023-07-09T16:07:04;24.30;20.70
2543;DHT22;1116;51.502;7.414;2023-07-09T16:09:35;24.30;22.10
2543;DHT22;1116;51.502;7.414;2023-07-09T16:12:11;24.20;24.80
2543;DHT22;1116;51.502;7.414;2023-07-09T16:14:44;24.10;24.90
2543;DHT22;1116;51.502;7.414;2023-07-09T16:17:17;24.00;26.50
2543;DHT22;1116;51.502;7.414;2023-07-09T16:19:49;24.00;28.10
2543;DHT22;1116;51.502;7.414;2023-07-09T16:22:20;24.00;26.40
2543;DHT22;1116;51.502;7.414;2023-07-09T16:24:52;24.00;26.10
2543;DHT22;1116;51.502;7.414;2023-07-09T16:27:23;24.00;24.70
2543;DHT22;1116;51.502;7.414;2023-07-09T16:29:54;24.00;25.70
2543;DHT22;1116;51.502;7.414;2023-07-09T16:32:27;24.10;26.40
2543;DHT22;1116;51.502;7.414;2023-07-09T16:34:58;24.00;29.40
2543;DHT22;1116;51.502;7.414;2023-07-09T16:37:29;23.90;35.00
2543;DHT22;1116;51.502;7.414;2023-07-09T16:40:00;23.90;36.60
2543;DHT22;1116;51.502;7.414;2023-07-09T16:42:32;23.90;49.90
2543;DHT22;1116;51.502;7.414;2023-07-09T16:45:04;23.90;42.50
2543;DHT22;1116;51.502;7.414;2023-07-09T16:47:37;23.90;44.30
2543;DHT22;1116;51.502;7.414;2023-07-09T16:50:17;24.00;43.00
2543;DHT22;1116;51.502;7.414;2023-07-09T16:52:53;24.00;47.90
2543;DHT22;1116;51.502;7.414;2023-07-09T16:55:25;23.90;54.20
2543;DHT22;1116;51.502;7.414;2023-07-09T16:57:58;23.90;64.30
2543;DHT22;1116;51.502;7.414;2023-07-09T17:00:31;23.60;99.40